sensor_id;sensor_type;location;lat;lon;timestamp;P1;durP1;ratioP1;P2;durP2;ratioP2
82012;SDS011;71535;53.354;15.030;2023-08-06T00:01:57;6.93;;;3.22;;
82012;SDS011;71535;53.354;15.030;2023-08-06T00:05:21;13.38;;;4.53;;
82012;SDS011;71535;53.354;15.030;2023-08-06T00:08:45;8.57;;;3.70;;
82012;SDS011;71535;53.354;15.030;2023-08-06T00:12:08;9.15;;;3.83;;
82012;SDS011;71535;53.354;15.030;2023-08-06T00:15:32;8.82;;;3.90;;
82012;SDS011;71535;53.354;15.030;2023-08-06T00:18:56;8.82;;;4.28;;
82012;SDS011;71535;53.354;15.030;2023-08-06T00:22:20;11.23;;;4.13;;
82012;SDS011;71535;53.354;15.030;2023-08-06T00:25:47;11.07;;;4.40;;
82012;SDS011;71535;53.354;15.030;2023-08-06T00:28:12;9.55;;;4.57;;
82012;SDS011;71535;53.354;15.030;2023-08-06T00:31:36;7.97;;;3.45;;
82012;SDS011;71535;53.354;15.030;2023-08-06T00:35:00;10.68;;;3.92;;
82012;SDS011;71535;53.354;15.030;2023-08-06T00:37:25;8.98;;;4.40;;
82012;SDS011;71535;53.354;15.030;2023-08-06T00:39:51;9.15;;;3.72;;
82012;SDS011;71535;53.354;15.030;2023-08-06T00:42:16;9.45;;;3.78;;
82012;SDS011;71535;53.354;15.030;2023-08-06T00:44:45;9.07;;;3.65;;
82012;SDS011;71535;53.354;15.030;2023-08-06T00:47:11;10.70;;;4.00;;
82012;SDS011;71535;53.354;15.030;2023-08-06T00:49:36;9.23;;;4.00;;
82012;SDS011;71535;53.354;15.030;2023-08-06T00:52:23;11.77;;;4.20;;
82012;SDS011;71535;53.354;15.030;2023-08-06T00:55:11;8.73;;;3.75;;
82012;SDS011;71535;53.354;15.030;2023-08-06T00:58:00;10.65;;;3.95;;
82012;SDS011;71535;53.354;15.030;2023-08-06T01:01:25;10.85;;;4.03;;
82012;SDS011;71535;53.354;15.030;2023-08-06T01:04:19;8.88;;;4.32;;
82012;SDS011;71535;53.354;15.030;2023-08-06T01:07:09;11.38;;;4.45;;
82012;SDS011;71535;53.354;15.030;2023-08-06T01:15:56;11.30;;;5.15;;
82012;SDS011;71535;53.354;15.030;2023-08-06T01:18:24;9.15;;;4.00;;
82012;SDS011;71535;53.354;15.030;2023-08-06T01:20:50;9.25;;;3.60;;
82012;SDS011;71535;53.354;15.030;2023-08-06T01:23:16;10.15;;;3.95;;
82012;SDS011;71535;53.354;15.030;2023-08-06T01:28:24;9.60;;;4.22;;
82012;SDS011;71535;53.354;15.030;2023-08-06T01:31:07;8.45;;;3.80;;
82012;SDS011;71535;53.354;15.030;2023-08-06T01:33:39;10.63;;;4.43;;
82012;SDS011;71535;53.354;15.030;2023-08-06T01:39:34;9.40;;;4.15;;
82012;SDS011;71535;53.354;15.030;2023-08-06T01:42:04;12.25;;;4.00;;
82012;SDS011;71535;53.354;15.030;2023-08-06T01:44:31;10.35;;;4.93;;
82012;SDS011;71535;53.354;15.030;2023-08-06T01:46:56;9.32;;;4.13;;
82012;SDS011;71535;53.354;15.030;2023-08-06T01:49:22;11.25;;;4.50;;
82012;SDS011;71535;53.354;15.030;2023-08-06T01:51:47;8.98;;;3.92;;
82012;SDS011;71535;53.354;15.030;2023-08-06T01:54:13;9.13;;;4.20;;
82012;SDS011;71535;53.354;15.030;2023-08-06T01:56:38;11.65;;;4.50;;
82012;SDS011;71535;53.354;15.030;2023-08-06T01:59:03;9.10;;;4.43;;
82012;SDS011;71535;53.354;15.030;2023-08-06T02:01:29;13.10;;;4.70;;
82012;SDS011;71535;53.354;15.030;2023-08-06T02:03:54;12.00;;;4.60;;
82012;SDS011;71535;53.354;15.030;2023-08-06T02:06:40;10.43;;;4.63;;
82012;SDS011;71535;53.354;15.030;2023-08-06T02:09:26;9.73;;;4.13;;
82012;SDS011;71535;53.354;15.030;2023-08-06T02:12:12;10.65;;;5.07;;
82012;SDS011;71535;53.354;15.030;2023-08-06T02:14:58;13.48;;;5.10;;
82012;SDS011;71535;53.354;15.030;2023-08-06T02:17:44;9.23;;;4.13;;
82012;SDS011;71535;53.354;15.030;2023-08-06T02:20:30;10.45;;;4.22;;
82012;SDS011;71535;53.354;15.030;2023-08-06T02:23:23;15.65;;;5.63;;
82012;SDS011;71535;53.354;15.030;2023-08-06T02:26:09;11.73;;;4.75;;
82012;SDS011;71535;53.354;15.030;2023-08-06T02:28:55;10.85;;;4.40;;
82012;SDS011;71535;53.354;15.030;2023-08-06T02:31:41;14.30;;;4.72;;
82012;SDS011;71535;53.354;15.030;2023-08-06T02:34:27;10.85;;;4.10;;
82012;SDS011;71535;53.354;15.030;2023-08-06T02:37:13;9.45;;;4.60;;
82012;SDS011;71535;53.354;15.030;2023-08-06T02:39:59;9.88;;;4.45;;
82012;SDS011;71535;53.354;15.030;2023-08-06T02:42:45;9.68;;;4.53;;
82012;SDS011;71535;53.354;15.030;2023-08-06T02:45:31;10.43;;;5.07;;
82012;SDS011;71535;53.354;15.030;2023-08-06T02:48:17;11.13;;;5.20;;
82012;SDS011;71535;53.354;15.030;2023-08-06T02:51:03;12.60;;;4.68;;
82012;SDS011;71535;53.354;15.030;2023-08-06T02:53:28;12.07;;;4.72;;
82012;SDS011;71535;53.354;15.030;2023-08-06T02:55:54;12.85;;;4.85;;
82012;SDS011;71535;53.354;15.030;2023-08-06T02:58:20;11.35;;;5.15;;
82012;SDS011;71535;53.354;15.030;2023-08-06T03:00:58;11.05;;;5.03;;
82012;SDS011;71535;53.354;15.030;2023-08-06T03:03:24;11.18;;;4.60;;
82012;SDS011;71535;53.354;15.030;2023-08-06T03:05:53;10.45;;;4.78;;
82012;SDS011;71535;53.354;15.030;2023-08-06T03:08:19;10.20;;;5.13;;
82012;SDS011;71535;53.354;15.030;2023-08-06T03:10:48;10.68;;;4.57;;
82012;SDS011;71535;53.354;15.030;2023-08-06T03:13:34;8.45;;;4.50;;
82012;SDS011;71535;53.354;15.030;2023-08-06T03:16:20;11.05;;;4.65;;
82012;SDS011;71535;53.354;15.030;2023-08-06T03:18:53;14.38;;;4.82;;
82012;SDS011;71535;53.354;15.030;2023-08-06T03:21:39;16.38;;;5.60;;
82012;SDS011;71535;53.354;15.030;2023-08-06T03:24:25;9.88;;;4.32;;
82012;SDS011;71535;53.354;15.030;2023-08-06T03:26:51;10.35;;;4.50;;
82012;SDS011;71535;53.354;15.030;2023-08-06T03:29:36;10.68;;;4.90;;
82012;SDS011;71535;53.354;15.030;2023-08-06T03:32:24;10.98;;;4.70;;
82012;SDS011;71535;53.354;15.030;2023-08-06T03:34:59;10.68;;;4.35;;
82012;SDS011;71535;53.354;15.030;2023-08-06T03:37:41;10.05;;;4.40;;
82012;SDS011;71535;53.354;15.030;2023-08-06T03:40:07;10.30;;;4.82;;
82012;SDS011;71535;53.354;15.030;2023-08-06T03:42:32;12.35;;;5.32;;
82012;SDS011;71535;53.354;15.030;2023-08-06T03:44:58;11.60;;;4.75;;
82012;SDS011;71535;53.354;15.030;2023-08-06T03:47:23;13.15;;;4.90;;
82012;SDS011;71535;53.354;15.030;2023-08-06T03:49:49;14.57;;;5.47;;
82012;SDS011;71535;53.354;15.030;2023-08-06T03:52:14;12.63;;;4.78;;
82012;SDS011;71535;53.354;15.030;2023-08-06T03:54:40;12.07;;;5.47;;
82012;SDS011;71535;53.354;15.030;2023-08-06T03:57:08;13.13;;;4.47;;
82012;SDS011;71535;53.354;15.030;2023-08-06T03:59:33;11.63;;;5.40;;
82012;SDS011;71535;53.354;15.030;2023-08-06T04:01:59;11.55;;;4.85;;
82012;SDS011;71535;53.354;15.030;2023-08-06T04:04:24;11.73;;;5.05;;
82012;SDS011;71535;53.354;15.030;2023-08-06T04:06:50;10.35;;;4.60;;
82012;SDS011;71535;53.354;15.030;2023-08-06T04:09:15;10.45;;;4.28;;
82012;SDS011;71535;53.354;15.030;2023-08-06T04:11:41;12.43;;;4.75;;
82012;SDS011;71535;53.354;15.030;2023-08-06T04:14:06;12.20;;;4.93;;
82012;SDS011;71535;53.354;15.030;2023-08-06T04:16:32;11.90;;;5.15;;
82012;SDS011;71535;53.354;15.030;2023-08-06T04:18:57;12.40;;;4.70;;
82012;SDS011;71535;53.354;15.030;2023-08-06T04:21:23;10.73;;;5.00;;
82012;SDS011;71535;53.354;15.030;2023-08-06T04:23:48;10.00;;;4.13;;
82012;SDS011;71535;53.354;15.030;2023-08-06T04:26:14;10.00;;;4.47;;
82012;SDS011;71535;53.354;15.030;2023-08-06T04:28:39;9.25;;;3.88;;
82012;SDS011;71535;53.354;15.030;2023-08-06T04:31:05;8.88;;;3.70;;
82012;SDS011;71535;53.354;15.030;2023-08-06T04:33:30;8.95;;;4.45;;
82012;SDS011;71535;53.354;15.030;2023-08-06T04:35:56;10.45;;;4.18;;
82012;SDS011;71535;53.354;15.030;2023-08-06T04:38:25;12.57;;;4.80;;
82012;SDS011;71535;53.354;15.030;2023-08-06T04:40:50;7.80;;;3.75;;
82012;SDS011;71535;53.354;15.030;2023-08-06T04:43:16;8.82;;;3.53;;
82012;SDS011;71535;53.354;15.030;2023-08-06T04:45:51;8.63;;;4.30;;
82012;SDS011;71535;53.354;15.030;2023-08-06T04:48:18;7.78;;;3.72;;
82012;SDS011;71535;53.354;15.030;2023-08-06T04:50:44;9.90;;;3.95;;
82012;SDS011;71535;53.354;15.030;2023-08-06T04:53:13;7.03;;;3.65;;
82012;SDS011;71535;53.354;15.030;2023-08-06T04:55:39;7.75;;;3.70;;
82012;SDS011;71535;53.354;15.030;2023-08-06T04:58:05;10.55;;;4.22;;
82012;SDS011;71535;53.354;15.030;2023-08-06T05:00:31;10.00;;;3.63;;
82012;SDS011;71535;53.354;15.030;2023-08-06T05:02:56;6.65;;;3.40;;
82012;SDS011;71535;53.354;15.030;2023-08-06T05:05:22;10.05;;;3.70;;
82012;SDS011;71535;53.354;15.030;2023-08-06T05:07:48;6.68;;;3.17;;
82012;SDS011;71535;53.354;15.030;2023-08-06T05:10:14;9.82;;;4.13;;
82012;SDS011;71535;53.354;15.030;2023-08-06T05:12:40;7.13;;;3.03;;
82012;SDS011;71535;53.354;15.030;2023-08-06T05:15:06;7.47;;;3.67;;
82012;SDS011;71535;53.354;15.030;2023-08-06T05:17:32;7.30;;;3.40;;
82012;SDS011;71535;53.354;15.030;2023-08-06T05:19:57;7.53;;;3.60;;
82012;SDS011;71535;53.354;15.030;2023-08-06T05:22:23;8.00;;;3.45;;
82012;SDS011;71535;53.354;15.030;2023-08-06T05:24:48;7.28;;;3.63;;
82012;SDS011;71535;53.354;15.030;2023-08-06T05:27:13;9.30;;;3.92;;
82012;SDS011;71535;53.354;15.030;2023-08-06T05:29:39;11.35;;;4.15;;
82012;SDS011;71535;53.354;15.030;2023-08-06T05:32:05;7.57;;;3.80;;
82012;SDS011;71535;53.354;15.030;2023-08-06T05:34:30;6.88;;;3.47;;
82012;SDS011;71535;53.354;15.030;2023-08-06T05:36:56;9.23;;;3.42;;
82012;SDS011;71535;53.354;15.030;2023-08-06T05:39:21;9.70;;;3.85;;
82012;SDS011;71535;53.354;15.030;2023-08-06T05:41:46;7.75;;;3.47;;
82012;SDS011;71535;53.354;15.030;2023-08-06T05:44:12;7.90;;;3.58;;
82012;SDS011;71535;53.354;15.030;2023-08-06T05:46:37;7.85;;;3.97;;
82012;SDS011;71535;53.354;15.030;2023-08-06T05:49:03;8.45;;;3.33;;
82012;SDS011;71535;53.354;15.030;2023-08-06T05:51:28;8.90;;;4.05;;
82012;SDS011;71535;53.354;15.030;2023-08-06T05:53:54;9.82;;;3.85;;
82012;SDS011;71535;53.354;15.030;2023-08-06T05:56:19;7.57;;;3.70;;
82012;SDS011;71535;53.354;15.030;2023-08-06T05:58:45;9.75;;;4.05;;
82012;SDS011;71535;53.354;15.030;2023-08-06T06:01:12;9.10;;;3.42;;
82012;SDS011;71535;53.354;15.030;2023-08-06T06:03:38;7.18;;;3.15;;
82012;SDS011;71535;53.354;15.030;2023-08-06T06:06:03;8.10;;;3.17;;
82012;SDS011;71535;53.354;15.030;2023-08-06T06:08:29;8.65;;;3.42;;
82012;SDS011;71535;53.354;15.030;2023-08-06T06:10:54;13.45;;;3.60;;
82012;SDS011;71535;53.354;15.030;2023-08-06T06:13:19;6.35;;;3.25;;
82012;SDS011;71535;53.354;15.030;2023-08-06T06:15:46;9.57;;;3.60;;
82012;SDS011;71535;53.354;15.030;2023-08-06T06:18:12;6.13;;;2.92;;
82012;SDS011;71535;53.354;15.030;2023-08-06T06:20:38;29.30;;;15.32;;
82012;SDS011;71535;53.354;15.030;2023-08-06T06:23:03;11.23;;;5.97;;
82012;SDS011;71535;53.354;15.030;2023-08-06T06:25:29;11.23;;;6.05;;
82012;SDS011;71535;53.354;15.030;2023-08-06T06:27:54;7.38;;;4.18;;
82012;SDS011;71535;53.354;15.030;2023-08-06T06:30:19;5.25;;;2.30;;
82012;SDS011;71535;53.354;15.030;2023-08-06T06:32:45;6.40;;;2.90;;
82012;SDS011;71535;53.354;15.030;2023-08-06T06:35:10;7.35;;;3.28;;
82012;SDS011;71535;53.354;15.030;2023-08-06T06:37:37;6.07;;;3.13;;
82012;SDS011;71535;53.354;15.030;2023-08-06T06:40:02;6.68;;;3.20;;
82012;SDS011;71535;53.354;15.030;2023-08-06T06:42:29;8.27;;;3.08;;
82012;SDS011;71535;53.354;15.030;2023-08-06T06:44:54;8.10;;;3.67;;
82012;SDS011;71535;53.354;15.030;2023-08-06T06:47:19;7.32;;;3.50;;
82012;SDS011;71535;53.354;15.030;2023-08-06T06:49:45;6.45;;;2.40;;
82012;SDS011;71535;53.354;15.030;2023-08-06T06:52:10;4.80;;;2.45;;
82012;SDS011;71535;53.354;15.030;2023-08-06T06:54:36;5.95;;;2.65;;
82012;SDS011;71535;53.354;15.030;2023-08-06T06:57:02;6.72;;;2.80;;
82012;SDS011;71535;53.354;15.030;2023-08-06T06:59:28;7.95;;;3.00;;
82012;SDS011;71535;53.354;15.030;2023-08-06T07:01:53;6.85;;;3.13;;
82012;SDS011;71535;53.354;15.030;2023-08-06T07:04:18;7.45;;;3.72;;
82012;SDS011;71535;53.354;15.030;2023-08-06T07:06:44;5.32;;;2.60;;
82012;SDS011;71535;53.354;15.030;2023-08-06T07:09:09;6.55;;;2.60;;
82012;SDS011;71535;53.354;15.030;2023-08-06T07:11:35;7.50;;;2.97;;
82012;SDS011;71535;53.354;15.030;2023-08-06T07:14:00;10.05;;;3.00;;
82012;SDS011;71535;53.354;15.030;2023-08-06T07:16:26;7.68;;;2.50;;
82012;SDS011;71535;53.354;15.030;2023-08-06T07:18:52;6.88;;;2.42;;
82012;SDS011;71535;53.354;15.030;2023-08-06T07:21:19;6.22;;;2.97;;
82012;SDS011;71535;53.354;15.030;2023-08-06T07:23:45;9.40;;;3.83;;
82012;SDS011;71535;53.354;15.030;2023-08-06T07:26:10;6.78;;;3.22;;
82012;SDS011;71535;53.354;15.030;2023-08-06T07:28:36;8.18;;;3.50;;
82012;SDS011;71535;53.354;15.030;2023-08-06T07:31:02;7.60;;;3.05;;
82012;SDS011;71535;53.354;15.030;2023-08-06T07:33:28;7.78;;;3.65;;
82012;SDS011;71535;53.354;15.030;2023-08-06T07:35:54;6.53;;;2.92;;
82012;SDS011;71535;53.354;15.030;2023-08-06T07:38:19;7.60;;;3.33;;
82012;SDS011;71535;53.354;15.030;2023-08-06T07:40:45;6.40;;;3.05;;
82012;SDS011;71535;53.354;15.030;2023-08-06T07:43:11;6.50;;;3.22;;
82012;SDS011;71535;53.354;15.030;2023-08-06T07:45:36;7.97;;;3.50;;
82012;SDS011;71535;53.354;15.030;2023-08-06T07:48:02;8.00;;;3.63;;
82012;SDS011;71535;53.354;15.030;2023-08-06T07:50:28;7.00;;;3.15;;
82012;SDS011;71535;53.354;15.030;2023-08-06T07:52:53;7.35;;;2.95;;
82012;SDS011;71535;53.354;15.030;2023-08-06T07:55:19;6.63;;;2.97;;
82012;SDS011;71535;53.354;15.030;2023-08-06T07:57:44;5.45;;;2.78;;
82012;SDS011;71535;53.354;15.030;2023-08-06T08:00:10;6.93;;;3.05;;
82012;SDS011;71535;53.354;15.030;2023-08-06T08:02:36;8.82;;;4.13;;
82012;SDS011;71535;53.354;15.030;2023-08-06T08:05:01;6.43;;;3.20;;
82012;SDS011;71535;53.354;15.030;2023-08-06T08:07:27;6.78;;;3.45;;
82012;SDS011;71535;53.354;15.030;2023-08-06T08:09:55;8.30;;;3.55;;
82012;SDS011;71535;53.354;15.030;2023-08-06T08:12:20;7.75;;;3.47;;
82012;SDS011;71535;53.354;15.030;2023-08-06T08:14:46;6.78;;;3.13;;
82012;SDS011;71535;53.354;15.030;2023-08-06T08:17:11;6.30;;;3.22;;
82012;SDS011;71535;53.354;15.030;2023-08-06T08:19:37;7.40;;;3.25;;
82012;SDS011;71535;53.354;15.030;2023-08-06T08:22:02;7.95;;;3.35;;
82012;SDS011;71535;53.354;15.030;2023-08-06T08:24:28;6.45;;;3.05;;
82012;SDS011;71535;53.354;15.030;2023-08-06T08:26:55;8.05;;;3.60;;
82012;SDS011;71535;53.354;15.030;2023-08-06T08:29:21;7.88;;;3.42;;
82012;SDS011;71535;53.354;15.030;2023-08-06T08:31:47;6.43;;;3.25;;
82012;SDS011;71535;53.354;15.030;2023-08-06T08:34:17;7.05;;;3.20;;
82012;SDS011;71535;53.354;15.030;2023-08-06T08:36:42;7.00;;;3.40;;
82012;SDS011;71535;53.354;15.030;2023-08-06T08:39:08;7.40;;;3.55;;
82012;SDS011;71535;53.354;15.030;2023-08-06T08:41:34;7.60;;;3.55;;
82012;SDS011;71535;53.354;15.030;2023-08-06T08:44:01;8.60;;;3.17;;
82012;SDS011;71535;53.354;15.030;2023-08-06T08:46:27;7.70;;;3.95;;
82012;SDS011;71535;53.354;15.030;2023-08-06T08:48:55;7.22;;;3.08;;
82012;SDS011;71535;53.354;15.030;2023-08-06T08:51:23;6.90;;;3.45;;
82012;SDS011;71535;53.354;15.030;2023-08-06T08:53:49;7.82;;;3.42;;
82012;SDS011;71535;53.354;15.030;2023-08-06T08:56:16;6.70;;;3.10;;
82012;SDS011;71535;53.354;15.030;2023-08-06T08:59:40;8.75;;;3.72;;
82012;SDS011;71535;53.354;15.030;2023-08-06T09:03:06;6.30;;;2.78;;
82012;SDS011;71535;53.354;15.030;2023-08-06T09:05:32;12.52;;;4.07;;
82012;SDS011;71535;53.354;15.030;2023-08-06T09:08:02;7.22;;;3.38;;
82012;SDS011;71535;53.354;15.030;2023-08-06T09:10:28;7.53;;;3.08;;
82012;SDS011;71535;53.354;15.030;2023-08-06T09:12:55;7.53;;;3.65;;
82012;SDS011;71535;53.354;15.030;2023-08-06T09:15:25;8.75;;;3.33;;
82012;SDS011;71535;53.354;15.030;2023-08-06T09:17:51;8.00;;;2.85;;
82012;SDS011;71535;53.354;15.030;2023-08-06T09:20:17;6.82;;;3.17;;
82012;SDS011;71535;53.354;15.030;2023-08-06T09:23:43;6.00;;;2.88;;
82012;SDS011;71535;53.354;15.030;2023-08-06T09:27:10;9.15;;;3.50;;
82012;SDS011;71535;53.354;15.030;2023-08-06T09:30:35;7.00;;;2.90;;
82012;SDS011;71535;53.354;15.030;2023-08-06T09:34:10;5.60;;;2.88;;
82012;SDS011;71535;53.354;15.030;2023-08-06T09:36:47;5.93;;;2.78;;
82012;SDS011;71535;53.354;15.030;2023-08-06T09:39:14;6.18;;;2.70;;
82012;SDS011;71535;53.354;15.030;2023-08-06T09:41:41;4.88;;;2.70;;
82012;SDS011;71535;53.354;15.030;2023-08-06T09:44:17;5.78;;;2.60;;
82012;SDS011;71535;53.354;15.030;2023-08-06T09:47:07;5.80;;;2.20;;
82012;SDS011;71535;53.354;15.030;2023-08-06T09:50:33;6.20;;;2.40;;
82012;SDS011;71535;53.354;15.030;2023-08-06T09:53:04;5.88;;;2.28;;
82012;SDS011;71535;53.354;15.030;2023-08-06T09:55:31;5.50;;;2.47;;
82012;SDS011;71535;53.354;15.030;2023-08-06T09:57:58;7.93;;;2.65;;
82012;SDS011;71535;53.354;15.030;2023-08-06T10:00:24;5.30;;;2.33;;
82012;SDS011;71535;53.354;15.030;2023-08-06T10:02:50;5.35;;;2.15;;
82012;SDS011;71535;53.354;15.030;2023-08-06T10:05:19;5.32;;;2.55;;
82012;SDS011;71535;53.354;15.030;2023-08-06T10:08:43;5.63;;;2.33;;
82012;SDS011;71535;53.354;15.030;2023-08-06T10:12:07;6.00;;;2.30;;
82012;SDS011;71535;53.354;15.030;2023-08-06T10:14:35;4.88;;;1.92;;
82012;SDS011;71535;53.354;15.030;2023-08-06T10:18:03;5.88;;;2.40;;
82012;SDS011;71535;53.354;15.030;2023-08-06T10:21:12;6.32;;;2.42;;
82012;SDS011;71535;53.354;15.030;2023-08-06T10:24:50;29.52;;;3.25;;
82012;SDS011;71535;53.354;15.030;2023-08-06T10:27:29;6.40;;;2.10;;
82012;SDS011;71535;53.354;15.030;2023-08-06T10:29:55;6.13;;;2.28;;
82012;SDS011;71535;53.354;15.030;2023-08-06T10:32:21;5.65;;;2.10;;
82012;SDS011;71535;53.354;15.030;2023-08-06T10:35:07;4.55;;;1.80;;
82012;SDS011;71535;53.354;15.030;2023-08-06T10:38:19;5.70;;;2.00;;
82012;SDS011;71535;53.354;15.030;2023-08-06T10:45:59;3.85;;;1.70;;
82012;SDS011;71535;53.354;15.030;2023-08-06T10:51:07;5.85;;;1.90;;
82012;SDS011;71535;53.354;15.030;2023-08-06T10:54:31;4.68;;;1.58;;
82012;SDS011;71535;53.354;15.030;2023-08-06T10:57:55;5.63;;;2.10;;
82012;SDS011;71535;53.354;15.030;2023-08-06T11:00:22;4.00;;;1.63;;
82012;SDS011;71535;53.354;15.030;2023-08-06T11:02:51;4.57;;;1.45;;
82012;SDS011;71535;53.354;15.030;2023-08-06T11:05:17;4.43;;;1.80;;
82012;SDS011;71535;53.354;15.030;2023-08-06T11:07:43;4.07;;;1.40;;
82012;SDS011;71535;53.354;15.030;2023-08-06T11:10:12;5.80;;;2.40;;
82012;SDS011;71535;53.354;15.030;2023-08-06T11:12:38;4.65;;;1.95;;
82012;SDS011;71535;53.354;15.030;2023-08-06T11:15:04;4.55;;;1.77;;
82012;SDS011;71535;53.354;15.030;2023-08-06T11:17:31;5.00;;;1.58;;
82012;SDS011;71535;53.354;15.030;2023-08-06T11:20:00;5.50;;;1.80;;
82012;SDS011;71535;53.354;15.030;2023-08-06T11:22:27;5.07;;;1.70;;
82012;SDS011;71535;53.354;15.030;2023-08-06T11:25:54;4.63;;;1.60;;
82012;SDS011;71535;53.354;15.030;2023-08-06T11:29:18;4.05;;;1.80;;
82012;SDS011;71535;53.354;15.030;2023-08-06T11:31:44;5.50;;;2.45;;
82012;SDS011;71535;53.354;15.030;2023-08-06T11:34:09;15.38;;;3.35;;
82012;SDS011;71535;53.354;15.030;2023-08-06T11:36:36;4.53;;;2.05;;
82012;SDS011;71535;53.354;15.030;2023-08-06T11:40:06;4.85;;;1.75;;
82012;SDS011;71535;53.354;15.030;2023-08-06T11:43:31;7.80;;;2.33;;
82012;SDS011;71535;53.354;15.030;2023-08-06T11:46:59;5.43;;;2.47;;
82012;SDS011;71535;53.354;15.030;2023-08-06T11:49:45;8.60;;;2.92;;
82012;SDS011;71535;53.354;15.030;2023-08-06T11:54:41;6.78;;;2.95;;
82012;SDS011;71535;53.354;15.030;2023-08-06T11:57:07;6.40;;;2.60;;
82012;SDS011;71535;53.354;15.030;2023-08-06T11:59:33;6.65;;;1.80;;
82012;SDS011;71535;53.354;15.030;2023-08-06T12:02:03;6.20;;;1.95;;
82012;SDS011;71535;53.354;15.030;2023-08-06T12:04:31;6.18;;;2.47;;
82012;SDS011;71535;53.354;15.030;2023-08-06T12:07:59;6.57;;;2.70;;
82012;SDS011;71535;53.354;15.030;2023-08-06T12:11:23;6.60;;;2.90;;
82012;SDS011;71535;53.354;15.030;2023-08-06T12:14:48;10.57;;;2.97;;
82012;SDS011;71535;53.354;15.030;2023-08-06T12:17:13;6.20;;;2.50;;
82012;SDS011;71535;53.354;15.030;2023-08-06T12:20:37;5.85;;;2.40;;
82012;SDS011;71535;53.354;15.030;2023-08-06T12:24:01;5.45;;;2.33;;
82012;SDS011;71535;53.354;15.030;2023-08-06T12:27:26;5.65;;;2.30;;
82012;SDS011;71535;53.354;15.030;2023-08-06T12:29:51;6.00;;;2.63;;
82012;SDS011;71535;53.354;15.030;2023-08-06T12:32:17;5.63;;;2.50;;
82012;SDS011;71535;53.354;15.030;2023-08-06T12:35:16;6.45;;;2.20;;
82012;SDS011;71535;53.354;15.030;2023-08-06T12:38:40;6.53;;;2.58;;
82012;SDS011;71535;53.354;15.030;2023-08-06T12:42:05;7.30;;;2.90;;
82012;SDS011;71535;53.354;15.030;2023-08-06T12:45:29;6.05;;;2.50;;
82012;SDS011;71535;53.354;15.030;2023-08-06T12:48:53;6.22;;;2.75;;
82012;SDS011;71535;53.354;15.030;2023-08-06T12:52:17;11.52;;;3.13;;
82012;SDS011;71535;53.354;15.030;2023-08-06T12:55:41;7.65;;;4.00;;
82012;SDS011;71535;53.354;15.030;2023-08-06T12:59:05;8.75;;;3.00;;
82012;SDS011;71535;53.354;15.030;2023-08-06T13:01:30;8.10;;;3.60;;
82012;SDS011;71535;53.354;15.030;2023-08-06T13:03:57;7.05;;;3.65;;
82012;SDS011;71535;53.354;15.030;2023-08-06T13:06:25;6.35;;;2.50;;
82012;SDS011;71535;53.354;15.030;2023-08-06T13:08:50;6.97;;;3.03;;
82012;SDS011;71535;53.354;15.030;2023-08-06T13:11:15;8.63;;;2.50;;
82012;SDS011;71535;53.354;15.030;2023-08-06T13:13:44;9.82;;;2.60;;
82012;SDS011;71535;53.354;15.030;2023-08-06T13:16:11;6.70;;;2.70;;
82012;SDS011;71535;53.354;15.030;2023-08-06T13:18:37;5.80;;;2.28;;
82012;SDS011;71535;53.354;15.030;2023-08-06T13:21:03;6.75;;;2.40;;
82012;SDS011;71535;53.354;15.030;2023-08-06T13:23:33;5.95;;;2.28;;
82012;SDS011;71535;53.354;15.030;2023-08-06T13:25:59;5.93;;;3.30;;
82012;SDS011;71535;53.354;15.030;2023-08-06T13:28:24;7.28;;;3.72;;
82012;SDS011;71535;53.354;15.030;2023-08-06T13:30:50;7.15;;;2.97;;
82012;SDS011;71535;53.354;15.030;2023-08-06T13:33:24;7.53;;;4.00;;
82012;SDS011;71535;53.354;15.030;2023-08-06T13:35:51;6.18;;;2.00;;
82012;SDS011;71535;53.354;15.030;2023-08-06T13:38:17;5.30;;;1.92;;
82012;SDS011;71535;53.354;15.030;2023-08-06T13:40:57;5.40;;;2.08;;
82012;SDS011;71535;53.354;15.030;2023-08-06T13:43:30;5.80;;;1.80;;
82012;SDS011;71535;53.354;15.030;2023-08-06T13:46:53;6.32;;;2.20;;
82012;SDS011;71535;53.354;15.030;2023-08-06T13:49:19;9.50;;;2.47;;
82012;SDS011;71535;53.354;15.030;2023-08-06T13:51:44;7.35;;;2.10;;
82012;SDS011;71535;53.354;15.030;2023-08-06T13:55:08;6.10;;;2.17;;
82012;SDS011;71535;53.354;15.030;2023-08-06T13:57:49;6.38;;;2.28;;
82012;SDS011;71535;53.354;15.030;2023-08-06T14:01:13;5.97;;;2.70;;
82012;SDS011;71535;53.354;15.030;2023-08-06T14:03:38;7.43;;;2.63;;
82012;SDS011;71535;53.354;15.030;2023-08-06T14:06:04;6.68;;;2.53;;
82012;SDS011;71535;53.354;15.030;2023-08-06T14:08:29;7.13;;;2.63;;
82012;SDS011;71535;53.354;15.030;2023-08-06T14:11:53;7.40;;;2.47;;
82012;SDS011;71535;53.354;15.030;2023-08-06T14:15:17;4.68;;;2.10;;
82012;SDS011;71535;53.354;15.030;2023-08-06T14:18:41;8.63;;;2.65;;
82012;SDS011;71535;53.354;15.030;2023-08-06T14:22:03;5.97;;;2.55;;
82012;SDS011;71535;53.354;15.030;2023-08-06T14:25:27;6.28;;;2.38;;
82012;SDS011;71535;53.354;15.030;2023-08-06T14:28:51;7.72;;;2.33;;
82012;SDS011;71535;53.354;15.030;2023-08-06T14:32:15;6.53;;;2.15;;
82012;SDS011;71535;53.354;15.030;2023-08-06T14:34:43;6.50;;;2.55;;
82012;SDS011;71535;53.354;15.030;2023-08-06T14:37:41;5.55;;;2.40;;
82012;SDS011;71535;53.354;15.030;2023-08-06T14:41:02;6.47;;;2.30;;
82012;SDS011;71535;53.354;15.030;2023-08-06T14:44:05;5.32;;;1.70;;
82012;SDS011;71535;53.354;15.030;2023-08-06T14:46:32;5.97;;;2.42;;
82012;SDS011;71535;53.354;15.030;2023-08-06T14:48:58;8.50;;;2.40;;
82012;SDS011;71535;53.354;15.030;2023-08-06T14:51:24;4.88;;;1.98;;
82012;SDS011;71535;53.354;15.030;2023-08-06T14:53:49;5.28;;;1.90;;
82012;SDS011;71535;53.354;15.030;2023-08-06T14:56:15;6.75;;;2.22;;
82012;SDS011;71535;53.354;15.030;2023-08-06T14:58:40;5.85;;;1.88;;
82012;SDS011;71535;53.354;15.030;2023-08-06T15:01:06;8.50;;;2.67;;
82012;SDS011;71535;53.354;15.030;2023-08-06T15:03:32;6.78;;;1.92;;
82012;SDS011;71535;53.354;15.030;2023-08-06T15:05:59;4.85;;;2.40;;
82012;SDS011;71535;53.354;15.030;2023-08-06T15:08:25;6.78;;;2.13;;
82012;SDS011;71535;53.354;15.030;2023-08-06T15:10:51;6.97;;;2.35;;
82012;SDS011;71535;53.354;15.030;2023-08-06T15:13:18;5.72;;;2.83;;
82012;SDS011;71535;53.354;15.030;2023-08-06T15:15:43;5.82;;;2.40;;
82012;SDS011;71535;53.354;15.030;2023-08-06T15:18:11;6.47;;;2.33;;
82012;SDS011;71535;53.354;15.030;2023-08-06T15:20:37;4.28;;;1.15;;
82012;SDS011;71535;53.354;15.030;2023-08-06T15:23:02;6.68;;;1.48;;
82012;SDS011;71535;53.354;15.030;2023-08-06T15:25:27;5.13;;;1.35;;
82012;SDS011;71535;53.354;15.030;2023-08-06T15:27:53;4.53;;;1.35;;
82012;SDS011;71535;53.354;15.030;2023-08-06T15:31:09;4.20;;;1.60;;
82012;SDS011;71535;53.354;15.030;2023-08-06T15:34:17;5.63;;;1.73;;
82012;SDS011;71535;53.354;15.030;2023-08-06T15:37:19;5.95;;;1.80;;
82012;SDS011;71535;53.354;15.030;2023-08-06T15:40:37;3.88;;;1.45;;
82012;SDS011;71535;53.354;15.030;2023-08-06T15:43:56;5.20;;;1.60;;
82012;SDS011;71535;53.354;15.030;2023-08-06T15:47:17;6.10;;;1.77;;
82012;SDS011;71535;53.354;15.030;2023-08-06T15:50:36;8.55;;;2.30;;
82012;SDS011;71535;53.354;15.030;2023-08-06T15:53:02;4.60;;;1.50;;
82012;SDS011;71535;53.354;15.030;2023-08-06T15:55:31;3.95;;;1.20;;
82012;SDS011;71535;53.354;15.030;2023-08-06T15:58:02;5.25;;;1.70;;
82012;SDS011;71535;53.354;15.030;2023-08-06T16:00:27;5.00;;;0.95;;